createdAt,value
2018-11-03T00:00:19.425Z,9.83
2018-11-03T00:02:48.865Z,9.79
2018-11-03T00:05:18.371Z,9.74
2018-11-03T00:07:47.913Z,9.69
2018-11-03T00:10:17.421Z,9.64
2018-11-03T00:12:46.844Z,9.60
2018-11-03T00:15:16.411Z,9.54
2018-11-03T00:17:45.845Z,9.50
2018-11-03T00:20:15.270Z,9.47
2018-11-03T00:22:44.726Z,9.43
2018-11-03T00:25:14.204Z,9.41
2018-11-03T00:27:43.633Z,9.39
2018-11-03T00:30:13.781Z,9.36
2018-11-03T00:32:43.311Z,9.34
2018-11-03T00:35:13.107Z,9.34
2018-11-03T00:37:42.533Z,9.38
2018-11-03T00:40:14.092Z,9.43
2018-11-03T00:42:44.207Z,9.47
2018-11-03T00:45:14.140Z,9.47
2018-11-03T00:47:44.425Z,9.50
2018-11-03T00:50:15.018Z,9.50
2018-11-03T00:52:44.754Z,9.52
2018-11-03T00:55:14.566Z,9.53
2018-11-03T00:57:44.191Z,9.52
2018-11-03T01:00:18.461Z,9.49
2018-11-03T01:02:48.947Z,9.45
2018-11-03T01:05:18.773Z,9.42
2018-11-03T01:07:48.328Z,9.40
2018-11-03T01:10:18.447Z,9.38
2018-11-03T01:12:47.897Z,9.36
2018-11-03T01:15:18.154Z,9.32
2018-11-03T01:17:47.626Z,9.30
2018-11-03T01:20:18.180Z,9.29
2018-11-03T01:22:47.589Z,9.28
2018-11-03T01:25:17.039Z,9.27
2018-11-03T01:27:46.568Z,9.26
2018-11-03T01:30:17.053Z,9.24
2018-11-03T01:32:46.660Z,9.21
2018-11-03T01:35:16.217Z,9.21
2018-11-03T01:37:45.674Z,9.21
2018-11-03T01:40:15.393Z,9.21
2018-11-03T01:42:44.861Z,9.20
2018-11-03T01:45:14.303Z,9.20
2018-11-03T01:47:43.761Z,9.22
2018-11-03T01:50:13.373Z,9.20
2018-11-03T01:52:42.976Z,9.19
2018-11-03T01:55:12.449Z,9.18
2018-11-03T01:57:42.063Z,9.17
2018-11-03T02:00:11.974Z,9.17
2018-11-03T02:02:41.422Z,9.16
2018-11-03T02:05:11.399Z,9.16
2018-11-03T02:07:41.028Z,9.15
2018-11-03T02:10:11.900Z,9.16
2018-11-03T02:12:41.832Z,9.15
2018-11-03T02:15:11.423Z,9.13
2018-11-03T02:17:40.841Z,9.11
2018-11-03T02:20:11.235Z,9.10
2018-11-03T02:22:40.894Z,9.09
2018-11-03T02:25:10.764Z,9.10
2018-11-03T02:27:40.263Z,9.10
2018-11-03T02:30:11.116Z,9.10
2018-11-03T02:32:40.855Z,9.10
2018-11-03T02:35:11.446Z,9.09
2018-11-03T02:37:41.467Z,9.08
2018-11-03T02:40:12.612Z,9.08
2018-11-03T02:42:42.599Z,9.08
2018-11-03T02:45:12.103Z,9.09
2018-11-03T02:47:41.924Z,9.12
2018-11-03T02:50:14.007Z,9.13
2018-11-03T02:52:43.738Z,9.11
2018-11-03T02:55:13.211Z,9.13
2018-11-03T02:57:42.581Z,9.14
2018-11-03T03:00:12.440Z,9.15
2018-11-03T03:02:41.840Z,9.17
2018-11-03T03:05:11.785Z,9.14
2018-11-03T03:07:41.446Z,9.13
2018-11-03T03:10:12.657Z,9.12
2018-11-03T03:12:42.075Z,9.13
2018-11-03T03:15:12.557Z,9.15
2018-11-03T03:17:42.369Z,9.17
2018-11-03T03:20:12.674Z,9.18
2018-11-03T03:22:42.259Z,9.18
2018-11-03T03:25:12.177Z,9.18
2018-11-03T03:27:41.650Z,9.19
2018-11-03T03:30:11.638Z,9.18
2018-11-03T03:32:41.428Z,9.19
2018-11-03T03:35:10.876Z,9.18
2018-11-03T03:37:41.484Z,9.17
2018-11-03T03:40:11.595Z,9.16
2018-11-03T03:42:40.996Z,9.16
2018-11-03T03:45:11.027Z,9.16
2018-11-03T03:47:40.514Z,9.14
2018-11-03T03:50:11.150Z,9.14
2018-11-03T03:52:40.565Z,9.13
2018-11-03T03:55:10.569Z,9.11
2018-11-03T03:57:40.040Z,9.11
2018-11-03T04:00:11.404Z,9.09
2018-11-03T04:02:41.245Z,9.08
2018-11-03T04:05:10.839Z,9.07
2018-11-03T04:07:40.359Z,9.03
2018-11-03T04:10:10.557Z,9.00
2018-11-03T04:12:40.084Z,8.96
2018-11-03T04:15:09.561Z,8.91
2018-11-03T04:17:38.987Z,8.88
2018-11-03T04:20:08.932Z,8.82
2018-11-03T04:22:39.268Z,8.74
2018-11-03T04:25:08.711Z,8.69
2018-11-03T04:27:38.198Z,8.66
2018-11-03T04:30:12.184Z,8.66
2018-11-03T04:32:42.167Z,8.65
2018-11-03T04:35:11.969Z,8.64
2018-11-03T04:37:41.380Z,8.63
2018-11-03T04:40:12.326Z,8.62
2018-11-03T04:42:42.060Z,8.61
2018-11-03T04:45:12.267Z,8.61
2018-11-03T04:47:48.291Z,8.59
2018-11-03T04:50:17.749Z,8.60
2018-11-03T04:52:47.168Z,8.59
2018-11-03T04:55:16.697Z,8.59
2018-11-03T04:57:46.031Z,8.57
2018-11-03T05:00:15.444Z,8.56
2018-11-03T05:02:44.856Z,8.53
2018-11-03T05:05:14.276Z,8.49
2018-11-03T05:07:43.729Z,8.46
2018-11-03T05:10:13.152Z,8.41
2018-11-03T05:12:42.571Z,8.36
2018-11-03T05:15:12.021Z,8.30
2018-11-03T05:17:41.455Z,8.24
2018-11-03T05:20:10.899Z,8.21
2018-11-03T05:22:40.284Z,8.19
2018-11-03T05:25:09.690Z,8.17
2018-11-03T05:27:39.113Z,8.16
2018-11-03T05:30:09.519Z,8.14
2018-11-03T05:32:38.964Z,8.12
2018-11-03T05:35:08.371Z,8.11
2018-11-03T05:37:37.777Z,8.10
2018-11-03T05:40:07.257Z,8.07
2018-11-03T05:42:36.667Z,8.07
2018-11-03T05:45:06.188Z,8.03
2018-11-03T05:47:36.247Z,8.02
2018-11-03T05:50:07.417Z,8.00
2018-11-03T05:52:36.835Z,8.02
2018-11-03T05:55:07.671Z,8.02
2018-11-03T05:57:37.068Z,8.00
2018-11-03T06:00:08.571Z,8.01
2018-11-03T06:02:37.977Z,8.02
2018-11-03T06:05:07.494Z,8.02
2018-11-03T06:07:36.927Z,8.04
2018-11-03T06:10:07.442Z,8.09
2018-11-03T06:12:37.019Z,8.13
2018-11-03T06:15:07.037Z,8.16
2018-11-03T06:17:37.287Z,8.19
2018-11-03T06:20:07.531Z,8.22
2018-11-03T06:22:37.119Z,8.23
2018-11-03T06:25:07.954Z,8.24
2018-11-03T06:27:37.727Z,8.24
2018-11-03T06:30:09.783Z,8.26
2018-11-03T06:32:39.193Z,8.27
2018-11-03T06:35:09.841Z,8.30
2018-11-03T06:37:39.325Z,8.34
2018-11-03T06:40:09.449Z,8.38
2018-11-03T06:42:39.423Z,8.40
2018-11-03T06:45:09.813Z,8.43
2018-11-03T06:47:39.303Z,8.47
2018-11-03T06:50:09.119Z,8.51
2018-11-03T06:52:38.548Z,8.56
2018-11-03T06:55:08.473Z,8.62
2018-11-03T06:57:37.891Z,8.65
2018-11-03T07:00:09.748Z,8.69
2018-11-03T07:02:39.154Z,8.72
2018-11-03T07:05:09.358Z,8.78
2018-11-03T07:07:38.788Z,8.84
2018-11-03T07:10:09.487Z,8.91
2018-11-03T07:12:39.163Z,8.96
2018-11-03T07:15:08.341Z,9.05
2018-11-03T07:17:37.896Z,9.12
2018-11-03T07:20:10.527Z,9.17
2018-11-03T07:22:39.941Z,9.24
2018-11-03T07:25:09.767Z,9.30
2018-11-03T07:27:39.168Z,9.33
2018-11-03T07:30:11.527Z,9.39
2018-11-03T07:32:40.999Z,9.49
2018-11-03T07:35:10.409Z,9.59
2018-11-03T07:37:39.849Z,9.68
2018-11-03T07:40:10.288Z,9.77
2018-11-03T07:42:40.314Z,9.86
2018-11-03T07:45:10.188Z,9.97
2018-11-03T07:47:39.650Z,10.06
2018-11-03T07:50:11.787Z,10.15
2018-11-03T07:52:41.918Z,10.21
2018-11-03T07:55:12.840Z,10.32
2018-11-03T07:57:42.278Z,10.38
2018-11-03T08:00:13.492Z,10.46
2018-11-03T08:02:42.932Z,10.55
2018-11-03T08:05:12.813Z,10.65
2018-11-03T08:07:42.227Z,10.73
2018-11-03T08:10:12.331Z,10.78
2018-11-03T08:12:41.763Z,10.83
2018-11-03T08:15:11.744Z,10.86
2018-11-03T08:17:41.187Z,10.89
2018-11-03T08:20:11.471Z,10.94
2018-11-03T08:22:41.036Z,10.95
2018-11-03T08:25:10.451Z,10.99
2018-11-03T08:27:39.900Z,11.02
2018-11-03T08:30:12.262Z,11.08
2018-11-03T08:32:42.489Z,11.13
2018-11-03T08:35:12.810Z,11.21
2018-11-03T08:37:42.251Z,11.26
2018-11-03T08:40:12.756Z,11.29
2018-11-03T08:42:42.361Z,11.33
2018-11-03T08:45:12.200Z,11.36
2018-11-03T08:47:41.629Z,11.37
2018-11-03T08:50:12.514Z,11.40
2018-11-03T08:52:42.380Z,11.50
2018-11-03T08:55:12.960Z,11.61
2018-11-03T08:57:42.652Z,11.80
2018-11-03T09:00:14.036Z,11.99
2018-11-03T09:02:43.707Z,12.15
2018-11-03T09:05:13.367Z,12.20
2018-11-03T09:07:42.784Z,12.24
2018-11-03T09:10:13.624Z,12.35
2018-11-03T09:12:43.283Z,12.42
2018-11-03T09:15:13.938Z,12.44
2018-11-03T09:17:44.189Z,12.46
2018-11-03T09:20:14.242Z,12.48
2018-11-03T09:22:43.785Z,12.43
2018-11-03T09:25:14.423Z,12.35
2018-11-03T09:27:44.419Z,12.29
2018-11-03T09:30:17.842Z,12.24
2018-11-03T09:32:47.255Z,12.25
2018-11-03T09:35:17.151Z,12.44
2018-11-03T09:37:46.675Z,12.58
2018-11-03T09:40:17.772Z,12.68
2018-11-03T09:42:48.625Z,12.80
2018-11-03T09:45:19.301Z,12.93
2018-11-03T09:47:49.451Z,13.02
2018-11-03T09:50:19.393Z,13.15
2018-11-03T09:52:48.864Z,13.31
2018-11-03T09:55:19.325Z,13.56
2018-11-03T09:57:48.769Z,13.78
2018-11-03T10:00:19.726Z,13.87
2018-11-03T10:02:49.455Z,13.92
2018-11-03T10:05:18.899Z,13.95
2018-11-03T10:07:48.368Z,13.98
2018-11-03T10:10:19.210Z,14.08
2018-11-03T10:12:50.332Z,14.30
2018-11-03T10:15:19.984Z,14.65
2018-11-03T10:17:49.412Z,14.93
2018-11-03T10:20:18.919Z,15.21
2018-11-03T10:22:48.384Z,15.63
2018-11-03T10:25:19.455Z,15.95
2018-11-03T10:27:50.018Z,16.11
2018-11-03T10:30:19.562Z,15.96
2018-11-03T10:32:49.051Z,15.85
2018-11-03T10:35:19.375Z,15.75
2018-11-03T10:37:48.855Z,15.62
2018-11-03T10:40:18.899Z,15.50
2018-11-03T10:42:48.326Z,15.46
2018-11-03T10:45:17.916Z,15.47
2018-11-03T10:47:47.496Z,15.47
2018-11-03T10:50:18.972Z,15.58
2018-11-03T10:52:48.797Z,15.63
2018-11-03T10:55:19.388Z,15.58
2018-11-03T10:57:48.842Z,15.55
2018-11-03T11:00:25.067Z,15.55
2018-11-03T11:03:00.221Z,15.58
2018-11-03T11:05:35.514Z,15.65
2018-11-03T11:08:19.707Z,15.72
2018-11-03T11:10:54.531Z,15.74
2018-11-03T11:13:25.617Z,15.65
2018-11-03T11:18:56.775Z,15.16
2018-11-03T11:21:26.249Z,14.88
2018-11-03T11:23:55.720Z,14.53
2018-11-03T11:26:25.335Z,14.19
2018-11-03T11:28:54.860Z,13.76
2018-11-03T11:31:24.509Z,13.49
2018-11-03T11:33:53.851Z,13.45
2018-11-03T11:36:23.278Z,13.47
2018-11-03T11:38:52.731Z,13.47
2018-11-03T11:41:22.135Z,13.59
2018-11-03T11:43:51.625Z,13.77
2018-11-03T11:46:21.055Z,13.92
2018-11-03T11:48:50.435Z,13.90
2018-11-03T11:51:19.875Z,13.83
2018-11-03T11:53:49.356Z,13.76
2018-11-03T11:56:18.771Z,13.75
2018-11-03T11:58:48.175Z,13.87
2018-11-03T12:01:17.596Z,13.96
2018-11-03T12:03:47.007Z,14.04
2018-11-03T12:06:16.616Z,14.11
2018-11-03T12:08:46.008Z,14.18
2018-11-03T12:11:15.420Z,14.16
2018-11-03T12:13:44.807Z,14.07
2018-11-03T12:16:14.245Z,14.03
2018-11-03T12:18:44.555Z,14.05
2018-11-03T12:21:13.956Z,14.15
2018-11-03T12:23:43.740Z,14.18
2018-11-03T12:26:13.265Z,14.13
2018-11-03T12:28:42.672Z,14.15
2018-11-03T12:31:12.167Z,14.17
2018-11-03T12:33:41.567Z,14.13
2018-11-03T12:36:10.980Z,14.11
2018-11-03T12:38:40.432Z,14.08
2018-11-03T12:41:09.890Z,13.98
2018-11-03T12:43:39.291Z,13.93
2018-11-03T12:46:08.806Z,13.87
2018-11-03T12:48:38.211Z,13.83
2018-11-03T12:51:07.801Z,13.82
2018-11-03T12:53:37.199Z,13.86
2018-11-03T12:56:06.808Z,13.94
2018-11-03T12:58:36.211Z,13.92
2018-11-03T13:01:05.782Z,13.88
2018-11-03T13:03:35.199Z,13.86
2018-11-03T13:06:04.627Z,13.85
2018-11-03T13:08:34.066Z,13.82
2018-11-03T13:11:03.460Z,13.79
2018-11-03T13:13:32.936Z,13.79
2018-11-03T13:16:02.403Z,13.72
2018-11-03T13:18:31.902Z,13.65
2018-11-03T13:21:01.340Z,13.59
2018-11-03T13:23:30.807Z,13.50
2018-11-03T13:26:00.336Z,13.39
2018-11-03T13:28:29.771Z,13.29
2018-11-03T13:30:59.264Z,13.25
2018-11-03T13:33:28.807Z,13.25
2018-11-03T13:35:59.147Z,13.27
2018-11-03T13:38:29.251Z,13.28
2018-11-03T13:40:58.789Z,13.26
2018-11-03T13:43:28.160Z,13.16
2018-11-03T13:45:57.568Z,13.07
2018-11-03T13:48:26.992Z,13.02
2018-11-03T13:50:56.369Z,13.00
2018-11-03T13:53:25.853Z,12.94
2018-11-03T13:55:55.324Z,12.89
2018-11-03T13:58:24.781Z,12.86
2018-11-03T14:00:54.355Z,12.85
2018-11-03T14:03:23.839Z,12.80
2018-11-03T14:05:53.244Z,12.76
2018-11-03T14:08:22.756Z,12.72
2018-11-03T14:10:52.209Z,12.70
2018-11-03T14:13:21.603Z,12.70
2018-11-03T14:15:50.996Z,12.72
2018-11-03T14:18:20.428Z,12.72
2018-11-03T14:20:49.823Z,12.70
2018-11-03T14:23:19.269Z,12.66
2018-11-03T14:25:48.678Z,12.56
2018-11-03T14:28:18.069Z,12.46
2018-11-03T14:30:47.500Z,12.34
2018-11-03T14:33:16.944Z,12.24
2018-11-03T14:35:46.338Z,12.14
2018-11-03T14:38:15.731Z,12.05
2018-11-03T14:40:45.173Z,11.94
2018-11-03T14:43:14.634Z,11.79
2018-11-03T14:45:44.072Z,11.65
2018-11-03T14:48:13.611Z,11.50
2018-11-03T14:50:43.051Z,11.36
2018-11-03T14:53:12.517Z,11.23
2018-11-03T14:55:41.972Z,11.09
2018-11-03T14:58:11.362Z,10.99
2018-11-03T15:00:40.775Z,10.90
2018-11-03T15:03:10.152Z,10.83
2018-11-03T15:05:39.572Z,10.77
2018-11-03T15:08:08.971Z,10.72
2018-11-03T15:10:38.400Z,10.68
2018-11-03T15:13:07.794Z,10.66
2018-11-03T15:15:37.285Z,10.62
2018-11-03T15:18:06.728Z,10.57
2018-11-03T15:20:36.163Z,10.49
2018-11-03T15:23:05.665Z,10.43
2018-11-03T15:25:35.076Z,10.34
2018-11-03T15:28:04.555Z,10.28
2018-11-03T15:30:33.989Z,10.24
2018-11-03T15:33:10.004Z,10.27
2018-11-03T15:35:39.472Z,10.28
2018-11-03T15:38:08.896Z,10.31
2018-11-03T15:40:38.374Z,10.35
2018-11-03T15:43:07.803Z,10.38
2018-11-03T15:45:37.223Z,10.38
2018-11-03T15:48:06.958Z,10.31
2018-11-03T15:50:40.411Z,10.21
2018-11-03T15:53:09.852Z,10.11
2018-11-03T15:55:39.251Z,10.00
2018-11-03T15:58:08.680Z,9.92
2018-11-03T16:00:38.095Z,9.83
2018-11-03T16:03:07.527Z,9.78
2018-11-03T16:05:36.994Z,9.76
2018-11-03T16:08:06.611Z,9.75
2018-11-03T16:10:36.025Z,9.72
2018-11-03T16:13:05.483Z,9.68
2018-11-03T16:15:34.932Z,9.63
2018-11-03T16:18:04.352Z,9.57
2018-11-03T16:20:33.754Z,9.51
2018-11-03T16:23:03.177Z,9.48
2018-11-03T16:25:32.592Z,9.44
2018-11-03T16:28:02.219Z,9.42
2018-11-03T16:30:31.608Z,9.40
2018-11-03T16:33:01.016Z,9.37
2018-11-03T16:35:30.559Z,9.32
2018-11-03T16:37:59.979Z,9.27
2018-11-03T16:40:29.450Z,9.22
2018-11-03T16:42:58.876Z,9.18
2018-11-03T16:45:28.313Z,9.15
2018-11-03T16:47:57.699Z,9.12
2018-11-03T16:50:33.607Z,9.13
2018-11-03T16:53:03.056Z,9.15
2018-11-03T16:55:32.559Z,9.14
2018-11-03T16:58:02.069Z,9.12
2018-11-03T17:00:38.271Z,9.08
2018-11-03T17:03:07.830Z,9.04
2018-11-03T17:05:37.296Z,8.99
2018-11-03T17:08:06.797Z,8.97
2018-11-03T17:10:36.232Z,8.97
2018-11-03T17:13:05.831Z,8.97
2018-11-03T17:15:35.160Z,8.94
2018-11-03T17:18:04.600Z,8.88
2018-11-03T17:20:34.008Z,8.86
2018-11-03T17:23:03.691Z,8.83
2018-11-03T17:25:33.080Z,8.77
2018-11-03T17:28:02.589Z,8.74
2018-11-03T17:30:32.165Z,8.73
2018-11-03T17:33:01.567Z,8.72
2018-11-03T17:35:30.979Z,8.66
2018-11-03T17:38:00.392Z,8.64
2018-11-03T17:40:29.832Z,8.60
2018-11-03T17:42:59.296Z,8.56
2018-11-03T17:45:28.689Z,8.54
2018-11-03T17:47:58.219Z,8.51
2018-11-03T17:50:27.648Z,8.47
2018-11-03T17:52:57.086Z,8.43
2018-11-03T17:55:26.635Z,8.38
2018-11-03T17:57:56.109Z,8.37
2018-11-03T18:00:26.385Z,8.31
2018-11-03T18:02:55.576Z,8.29
2018-11-03T18:05:25.085Z,8.25
2018-11-03T18:07:54.507Z,8.21
2018-11-03T18:10:23.935Z,8.19
2018-11-03T18:12:53.387Z,8.16
2018-11-03T18:15:22.747Z,8.12
2018-11-03T18:17:52.148Z,8.08
2018-11-03T18:20:21.568Z,8.04
2018-11-03T18:22:51.030Z,7.98
2018-11-03T18:25:20.470Z,7.96
2018-11-03T18:27:49.915Z,7.96
2018-11-03T18:30:19.356Z,7.94
2018-11-03T18:32:48.760Z,7.91
2018-11-03T18:35:18.264Z,7.88
2018-11-03T18:37:47.730Z,7.83
2018-11-03T18:40:17.057Z,7.79
2018-11-03T18:42:46.472Z,7.74
2018-11-03T18:45:15.921Z,7.73
2018-11-03T18:47:45.372Z,7.71
2018-11-03T18:50:15.193Z,7.71
2018-11-03T18:52:44.602Z,7.70
2018-11-03T18:55:14.107Z,7.66
2018-11-03T18:57:43.527Z,7.64
2018-11-03T19:00:13.420Z,7.61
2018-11-03T19:02:42.856Z,7.60
2018-11-03T19:05:12.307Z,7.57
2018-11-03T19:07:41.715Z,7.55
2018-11-03T19:10:11.484Z,7.55
2018-11-03T19:12:40.947Z,7.53
2018-11-03T19:15:11.036Z,7.53
2018-11-03T19:17:40.972Z,7.52
2018-11-03T19:20:13.419Z,7.52
2018-11-03T19:22:42.940Z,7.52
2018-11-03T19:25:13.754Z,7.52
2018-11-03T19:27:43.217Z,7.53
2018-11-03T19:30:13.745Z,7.52
2018-11-03T19:32:44.432Z,7.53
2018-11-03T19:35:13.881Z,7.54
2018-11-03T19:37:43.395Z,7.55
2018-11-03T19:40:13.841Z,7.55
2018-11-03T19:42:43.482Z,7.55
2018-11-03T19:45:13.409Z,7.54
2018-11-03T19:47:42.780Z,7.50
2018-11-03T19:50:12.230Z,7.49
2018-11-03T19:52:41.660Z,7.45
2018-11-03T19:55:11.063Z,7.46
2018-11-03T19:57:40.663Z,7.47
2018-11-03T20:00:13.326Z,7.51
2018-11-03T20:02:42.952Z,7.53
2018-11-03T20:05:12.726Z,7.52
2018-11-03T20:07:43.379Z,7.50
2018-11-03T20:10:13.841Z,7.47
2018-11-03T20:12:43.749Z,7.43
2018-11-03T20:15:13.916Z,7.41
2018-11-03T20:17:43.986Z,7.40
2018-11-03T20:20:14.704Z,7.39
2018-11-03T20:22:44.671Z,7.37
2018-11-03T20:25:14.662Z,7.32
2018-11-03T20:27:44.584Z,7.31
2018-11-03T20:30:15.579Z,7.29
2018-11-03T20:32:46.617Z,7.27
2018-11-03T20:35:16.259Z,7.29
2018-11-03T20:37:46.041Z,7.28
2018-11-03T20:40:15.946Z,7.28
2018-11-03T20:42:45.999Z,7.26
2018-11-03T20:45:16.138Z,7.27
2018-11-03T20:47:45.788Z,7.26
2018-11-03T20:50:15.758Z,7.28
2018-11-03T20:52:45.583Z,7.28
2018-11-03T20:55:15.203Z,7.26
2018-11-03T20:57:44.856Z,7.25
2018-11-03T21:00:15.815Z,7.25
2018-11-03T21:02:45.951Z,7.24
2018-11-03T21:05:15.519Z,7.22
2018-11-03T21:07:45.311Z,7.21
2018-11-03T21:10:14.726Z,7.17
2018-11-03T21:12:44.122Z,7.12
2018-11-03T21:15:13.521Z,7.07
2018-11-03T21:17:42.907Z,7.05
2018-11-03T21:20:12.337Z,7.05
2018-11-03T21:22:41.871Z,7.06
2018-11-03T21:25:11.463Z,7.06
2018-11-03T21:27:40.867Z,7.05
2018-11-03T21:30:11.550Z,7.03
2018-11-03T21:32:41.245Z,7.03
2018-11-03T21:35:10.586Z,7.02
2018-11-03T21:37:40.049Z,7.01
2018-11-03T21:40:09.865Z,7.01
2018-11-03T21:42:39.296Z,6.99
2018-11-03T21:45:08.991Z,6.95
2018-11-03T21:47:38.573Z,6.92
2018-11-03T21:50:08.507Z,6.92
2018-11-03T21:52:38.008Z,6.91
2018-11-03T21:55:08.154Z,6.92
2018-11-03T21:57:37.568Z,6.93
2018-11-03T22:00:09.397Z,6.92
2018-11-03T22:02:38.849Z,6.92
2018-11-03T22:05:09.943Z,6.93
2018-11-03T22:07:39.345Z,6.93
2018-11-03T22:10:09.264Z,6.91
2018-11-03T22:12:38.710Z,6.92
2018-11-03T22:15:08.557Z,6.90
2018-11-03T22:17:37.986Z,6.89
2018-11-03T22:20:09.198Z,6.86
2018-11-03T22:22:38.948Z,6.84
2018-11-03T22:25:09.824Z,6.82
2018-11-03T22:27:39.310Z,6.81
2018-11-03T22:30:10.790Z,6.80
2018-11-03T22:32:40.576Z,6.75
2018-11-03T22:35:10.064Z,6.72
2018-11-03T22:37:39.643Z,6.69
2018-11-03T22:40:09.579Z,6.67
2018-11-03T22:42:39.052Z,6.63
2018-11-03T22:45:08.685Z,6.65
2018-11-03T22:47:38.139Z,6.65
2018-11-03T22:50:07.622Z,6.63
2018-11-03T22:52:37.076Z,6.59
2018-11-03T22:55:07.266Z,6.55
2018-11-03T22:57:36.677Z,6.54
2018-11-03T23:00:08.365Z,6.53
2018-11-03T23:02:37.795Z,6.49
2018-11-03T23:05:08.799Z,6.46
2018-11-03T23:07:38.512Z,6.43
2018-11-03T23:10:08.137Z,6.44
2018-11-03T23:12:37.573Z,6.45
2018-11-03T23:15:08.295Z,6.44
2018-11-03T23:17:37.699Z,6.42
2018-11-03T23:20:10.765Z,6.44
2018-11-03T23:22:40.380Z,6.44
2018-11-03T23:25:10.444Z,6.44
2018-11-03T23:27:39.897Z,6.41
2018-11-03T23:30:11.394Z,6.36
2018-11-03T23:32:40.796Z,6.35
2018-11-03T23:35:12.406Z,6.34
2018-11-03T23:37:42.117Z,6.31
2018-11-03T23:40:14.860Z,6.31
2018-11-03T23:42:44.266Z,6.31
2018-11-03T23:45:13.752Z,6.32
2018-11-03T23:47:43.180Z,6.32
2018-11-03T23:50:14.052Z,6.33
2018-11-03T23:52:45.624Z,6.35
2018-11-03T23:55:15.071Z,6.36
2018-11-03T23:57:44.455Z,6.38
